Skip to main content.
 TIME   TEMPERATURE   WINDSPEED   DIRECTION   HUMIDITY   BAROMETER   RAINFALL 
2:05 10.0°C (50.0°F) 13.0 kmh (8.1 mph) WNW 93% 1027.1hPa (30.33 inHg) 0.0mm (0.00 in.)
1:05 10.0°C (50.0 °F) 7.4 kmh (4.6 mph) WNW 93% 1027.1hPa (30.33 inHg) 0.0mm (0.00 in.)
0:04 10.0°C (50.0 °F) 9.3 kmh (5.8 mph) W 93% 1027.1hPa (30.33 inHg) 0.0mm (0.00 in.)
22:58 9.0°C (48.2 °F) 9.3 kmh (5.8 mph) WNW 93% 1027.1hPa (30.33 inHg) 0.0mm (0.00 in.)
21:58 10.0°C (50.0 °F) 7.4 kmh (4.6 mph) WNW 93% 1027.1hPa (30.33 inHg) 0.0mm (0.00 in.)
20:58 11.0°C (51.8 °F) 9.3 kmh (5.8 mph) W 87% 1027.1hPa (30.33 inHg) 0.0mm (0.00 in.)
19:58 10.0°C (50.0 °F) 7.4 kmh (4.6 mph) W 93% 1026.1hPa (30.30 inHg) 0.0mm (0.00 in.)
18:58 11.0°C (51.8 °F) 5.6 kmh (3.5 mph) W 93% 1026.1hPa (30.30 inHg) 0.0mm (0.00 in.)
17:58 12.0°C (53.6 °F) 5.6 kmh (3.5 mph) WSW 87% 1026.1hPa (30.30 inHg) 0.0mm (0.00 in.)
16:58 15.0°C (59.0 °F) 7.4 kmh (4.6 mph) NNE 76% 1025.1hPa (30.27 inHg) 0.0mm (0.00 in.)
15:58 16.0°C (60.8 °F) 9.3 kmh (5.8 mph) NE 67% 1025.1hPa (30.27 inHg) 0.0mm (0.00 in.)
14:58 15.0°C (59.0 °F) 9.3 kmh (5.8 mph) NE 76% 1025.1hPa (30.27 inHg) 0.0mm (0.00 in.)
13:58 16.0°C (60.8 °F) 9.3 kmh (5.8 mph) NNE 72% 1025.1hPa (30.27 inHg) 0.0mm (0.00 in.)
12:58 17.0°C (62.6 °F) 5.6 kmh (3.5 mph) NW 63% 1025.1hPa (30.27 inHg) 0.0mm (0.00 in.)
11:58 14.0°C (57.2 °F) 5.6 kmh (3.5 mph) W 76% 1026.1hPa (30.30 inHg) 0.0mm (0.00 in.)
10:58 16.0°C (60.8 °F) 3.7 kmh (2.3 mph) WSW 67% 1026.1hPa (30.30 inHg) 0.0mm (0.00 in.)
9:58 15.0°C (59.0 °F) 3.7 kmh (2.3 mph) WSW 72% 1025.1hPa (30.27 inHg) 0.0mm (0.00 in.)
8:58 11.0°C (51.8 °F) 3.7 kmh (2.3 mph) WSW 87% 1025.1hPa (30.27 inHg) 0.0mm (0.00 in.)
7:58 7.0°C (44.6 °F) 3.7 kmh (2.3 mph) WNW 93% 1024.0hPa (30.24 inHg) 0.0mm (0.00 in.)
6:58 7.0°C (44.6 °F) 3.7 kmh (2.3 mph) WNW 100% 1024.0hPa (30.24 inHg) 0.0mm (0.00 in.)
5:58 7.0°C (44.6 °F) 5.6 kmh (3.5 mph) WNW 93% 1023.0hPa (30.21 inHg) 0.0mm (0.00 in.)
4:58 7.0°C (44.6 °F) 5.6 kmh (3.5 mph) W 100% 1023.0hPa (30.21 inHg) 0.0mm (0.00 in.)
3:58 8.0°C (46.4 °F) 5.6 kmh (3.5 mph) WNW 93% 1023.0hPa (30.21 inHg) 0.0mm (0.00 in.)
2:58 8.0°C (46.4 °F) 3.7 kmh (2.3 mph) WNW 87% 1023.0hPa (30.21 inHg) 0.0mm (0.00 in.)